sensor_id;sensor_type;location;lat;lon;timestamp;temperature;humidity
23207;DHT22;11773;52.570;13.052;2024-02-26T00:01:13;4.90;99.90
23207;DHT22;11773;52.570;13.052;2024-02-26T00:03:42;4.80;99.90
23207;DHT22;11773;52.570;13.052;2024-02-26T00:06:13;4.70;99.90
23207;DHT22;11773;52.570;13.052;2024-02-26T00:08:43;4.70;99.90
23207;DHT22;11773;52.570;13.052;2024-02-26T00:11:12;4.90;99.90
23207;DHT22;11773;52.570;13.052;2024-02-26T00:13:42;4.90;99.90
23207;DHT22;11773;52.570;13.052;2024-02-26T00:16:12;4.70;99.90
23207;DHT22;11773;52.570;13.052;2024-02-26T00:18:41;4.70;99.90
23207;DHT22;11773;52.570;13.052;2024-02-26T00:21:12;4.70;99.90
23207;DHT22;11773;52.570;13.052;2024-02-26T00:23:43;4.70;99.90
23207;DHT22;11773;52.570;13.052;2024-02-26T00:26:12;4.60;99.90
23207;DHT22;11773;52.570;13.052;2024-02-26T00:28:43;4.80;99.90
23207;DHT22;11773;52.570;13.052;2024-02-26T00:31:12;4.80;99.90
23207;DHT22;11773;52.570;13.052;2024-02-26T00:33:42;4.60;99.90
23207;DHT22;11773;52.570;13.052;2024-02-26T00:36:12;4.60;99.90
23207;DHT22;11773;52.570;13.052;2024-02-26T00:38:42;4.60;99.90
23207;DHT22;11773;52.570;13.052;2024-02-26T00:41:12;4.70;99.90
23207;DHT22;11773;52.570;13.052;2024-02-26T00:43:42;4.70;99.90
23207;DHT22;11773;52.570;13.052;2024-02-26T00:46:12;4.70;99.90
23207;DHT22;11773;52.570;13.052;2024-02-26T00:48:41;4.60;99.90
23207;DHT22;11773;52.570;13.052;2024-02-26T00:51:11;4.60;99.90
23207;DHT22;11773;52.570;13.052;2024-02-26T00:53:41;4.50;99.90
23207;DHT22;11773;52.570;13.052;2024-02-26T00:56:11;4.50;99.90
23207;DHT22;11773;52.570;13.052;2024-02-26T00:58:40;4.60;99.90
23207;DHT22;11773;52.570;13.052;2024-02-26T01:01:10;4.50;99.90
23207;DHT22;11773;52.570;13.052;2024-02-26T01:03:40;4.40;99.90
23207;DHT22;11773;52.570;13.052;2024-02-26T01:06:09;4.50;99.90
23207;DHT22;11773;52.570;13.052;2024-02-26T01:08:39;4.50;99.90
23207;DHT22;11773;52.570;13.052;2024-02-26T01:11:09;4.50;99.90
23207;DHT22;11773;52.570;13.052;2024-02-26T01:13:38;4.40;99.90
23207;DHT22;11773;52.570;13.052;2024-02-26T01:16:08;4.20;99.90
23207;DHT22;11773;52.570;13.052;2024-02-26T01:18:38;4.30;99.90
23207;DHT22;11773;52.570;13.052;2024-02-26T01:21:08;4.20;99.90
23207;DHT22;11773;52.570;13.052;2024-02-26T01:23:37;4.20;99.90
23207;DHT22;11773;52.570;13.052;2024-02-26T01:26:07;4.20;99.90
23207;DHT22;11773;52.570;13.052;2024-02-26T01:28:36;4.20;99.90
23207;DHT22;11773;52.570;13.052;2024-02-26T01:31:06;4.10;99.90
23207;DHT22;11773;52.570;13.052;2024-02-26T01:33:37;4.10;99.90
23207;DHT22;11773;52.570;13.052;2024-02-26T01:36:07;3.90;99.90
23207;DHT22;11773;52.570;13.052;2024-02-26T01:38:36;4.00;99.90
23207;DHT22;11773;52.570;13.052;2024-02-26T01:41:06;4.00;99.90
23207;DHT22;11773;52.570;13.052;2024-02-26T01:43:35;4.00;99.90
23207;DHT22;11773;52.570;13.052;2024-02-26T01:46:05;4.00;99.90
23207;DHT22;11773;52.570;13.052;2024-02-26T01:48:37;3.90;99.90
23207;DHT22;11773;52.570;13.052;2024-02-26T01:51:07;3.90;99.90
23207;DHT22;11773;52.570;13.052;2024-02-26T01:53:38;3.90;99.90
23207;DHT22;11773;52.570;13.052;2024-02-26T01:56:09;3.90;99.90
23207;DHT22;11773;52.570;13.052;2024-02-26T01:58:39;3.90;99.90
23207;DHT22;11773;52.570;13.052;2024-02-26T02:01:09;3.80;99.90
23207;DHT22;11773;52.570;13.052;2024-02-26T02:03:39;3.80;99.90
23207;DHT22;11773;52.570;13.052;2024-02-26T02:06:10;3.70;99.90
23207;DHT22;11773;52.570;13.052;2024-02-26T02:08:40;3.70;99.90
23207;DHT22;11773;52.570;13.052;2024-02-26T02:11:11;3.80;99.90
23207;DHT22;11773;52.570;13.052;2024-02-26T02:13:42;3.80;99.90
23207;DHT22;11773;52.570;13.052;2024-02-26T02:16:12;4.10;99.90
23207;DHT22;11773;52.570;13.052;2024-02-26T02:18:42;3.90;99.90
23207;DHT22;11773;52.570;13.052;2024-02-26T02:21:12;3.70;99.90
23207;DHT22;11773;52.570;13.052;2024-02-26T02:23:42;3.70;99.90
23207;DHT22;11773;52.570;13.052;2024-02-26T02:26:14;3.70;99.90
23207;DHT22;11773;52.570;13.052;2024-02-26T02:28:45;3.90;99.90
23207;DHT22;11773;52.570;13.052;2024-02-26T02:31:16;3.90;99.90
23207;DHT22;11773;52.570;13.052;2024-02-26T02:33:45;3.80;99.90
23207;DHT22;11773;52.570;13.052;2024-02-26T02:36:15;3.60;99.90
23207;DHT22;11773;52.570;13.052;2024-02-26T02:38:51;3.70;99.90
23207;DHT22;11773;52.570;13.052;2024-02-26T02:41:21;3.60;99.90
23207;DHT22;11773;52.570;13.052;2024-02-26T02:43:50;3.60;99.90
23207;DHT22;11773;52.570;13.052;2024-02-26T02:46:20;3.60;99.90
23207;DHT22;11773;52.570;13.052;2024-02-26T02:48:49;3.60;99.90
23207;DHT22;11773;52.570;13.052;2024-02-26T02:51:19;3.60;99.90
23207;DHT22;11773;52.570;13.052;2024-02-26T02:53:49;3.70;99.90
23207;DHT22;11773;52.570;13.052;2024-02-26T02:56:18;3.70;99.90
23207;DHT22;11773;52.570;13.052;2024-02-26T02:58:48;3.60;99.90
23207;DHT22;11773;52.570;13.052;2024-02-26T03:01:17;3.70;99.90
23207;DHT22;11773;52.570;13.052;2024-02-26T03:03:47;3.50;99.90
23207;DHT22;11773;52.570;13.052;2024-02-26T03:06:17;3.60;99.90
23207;DHT22;11773;52.570;13.052;2024-02-26T03:08:48;3.50;99.90
23207;DHT22;11773;52.570;13.052;2024-02-26T03:11:18;3.40;99.90
23207;DHT22;11773;52.570;13.052;2024-02-26T03:13:47;3.50;99.90
23207;DHT22;11773;52.570;13.052;2024-02-26T03:16:17;3.50;99.90
23207;DHT22;11773;52.570;13.052;2024-02-26T03:18:47;3.40;99.90
23207;DHT22;11773;52.570;13.052;2024-02-26T03:21:17;3.40;99.90
23207;DHT22;11773;52.570;13.052;2024-02-26T03:23:47;3.40;99.90
23207;DHT22;11773;52.570;13.052;2024-02-26T03:26:16;3.30;99.90
23207;DHT22;11773;52.570;13.052;2024-02-26T03:28:46;3.40;99.90
23207;DHT22;11773;52.570;13.052;2024-02-26T03:31:16;3.50;99.90
23207;DHT22;11773;52.570;13.052;2024-02-26T03:33:45;3.50;99.90
23207;DHT22;11773;52.570;13.052;2024-02-26T03:36:15;3.40;99.90
23207;DHT22;11773;52.570;13.052;2024-02-26T03:38:45;3.40;99.90
23207;DHT22;11773;52.570;13.052;2024-02-26T03:41:14;3.40;99.90
23207;DHT22;11773;52.570;13.052;2024-02-26T03:43:44;3.30;99.90
23207;DHT22;11773;52.570;13.052;2024-02-26T03:46:14;3.50;99.90
23207;DHT22;11773;52.570;13.052;2024-02-26T03:48:43;3.40;99.90
23207;DHT22;11773;52.570;13.052;2024-02-26T03:51:13;3.40;99.90
23207;DHT22;11773;52.570;13.052;2024-02-26T03:53:42;3.40;99.90
23207;DHT22;11773;52.570;13.052;2024-02-26T03:56:12;3.40;99.90
23207;DHT22;11773;52.570;13.052;2024-02-26T03:58:42;3.40;99.90
23207;DHT22;11773;52.570;13.052;2024-02-26T04:01:11;3.30;99.90
23207;DHT22;11773;52.570;13.052;2024-02-26T04:03:41;3.40;99.90
23207;DHT22;11773;52.570;13.052;2024-02-26T04:06:12;3.20;99.90
23207;DHT22;11773;52.570;13.052;2024-02-26T04:08:47;3.30;99.90
23207;DHT22;11773;52.570;13.052;2024-02-26T04:11:16;3.20;99.90
23207;DHT22;11773;52.570;13.052;2024-02-26T04:13:46;3.10;99.90
23207;DHT22;11773;52.570;13.052;2024-02-26T04:16:18;3.20;99.90
23207;DHT22;11773;52.570;13.052;2024-02-26T04:18:47;3.30;99.90
23207;DHT22;11773;52.570;13.052;2024-02-26T04:21:17;3.30;99.90
23207;DHT22;11773;52.570;13.052;2024-02-26T04:23:46;3.40;99.90
23207;DHT22;11773;52.570;13.052;2024-02-26T04:26:17;3.30;99.90
23207;DHT22;11773;52.570;13.052;2024-02-26T04:28:46;3.20;99.90
23207;DHT22;11773;52.570;13.052;2024-02-26T04:31:16;3.30;99.90
23207;DHT22;11773;52.570;13.052;2024-02-26T04:33:45;3.30;99.90
23207;DHT22;11773;52.570;13.052;2024-02-26T04:36:15;3.30;99.90
23207;DHT22;11773;52.570;13.052;2024-02-26T04:38:45;3.30;99.90
23207;DHT22;11773;52.570;13.052;2024-02-26T04:41:15;3.30;99.90
23207;DHT22;11773;52.570;13.052;2024-02-26T04:43:44;3.40;99.90
23207;DHT22;11773;52.570;13.052;2024-02-26T04:46:14;3.40;99.90
23207;DHT22;11773;52.570;13.052;2024-02-26T04:48:43;3.20;99.90
23207;DHT22;11773;52.570;13.052;2024-02-26T04:51:14;3.30;99.90
23207;DHT22;11773;52.570;13.052;2024-02-26T04:53:44;3.30;99.90
23207;DHT22;11773;52.570;13.052;2024-02-26T04:56:13;3.30;99.90
23207;DHT22;11773;52.570;13.052;2024-02-26T04:58:43;3.30;99.90
23207;DHT22;11773;52.570;13.052;2024-02-26T05:01:12;3.30;99.90
23207;DHT22;11773;52.570;13.052;2024-02-26T05:03:43;3.30;99.90
23207;DHT22;11773;52.570;13.052;2024-02-26T05:06:13;3.30;99.90
23207;DHT22;11773;52.570;13.052;2024-02-26T05:08:43;3.20;99.90
23207;DHT22;11773;52.570;13.052;2024-02-26T05:11:13;3.20;99.90
23207;DHT22;11773;52.570;13.052;2024-02-26T05:13:44;3.20;99.90
23207;DHT22;11773;52.570;13.052;2024-02-26T05:16:14;3.30;99.90
23207;DHT22;11773;52.570;13.052;2024-02-26T05:18:43;3.30;99.90
23207;DHT22;11773;52.570;13.052;2024-02-26T05:21:13;3.20;99.90
23207;DHT22;11773;52.570;13.052;2024-02-26T05:23:43;3.20;99.90
23207;DHT22;11773;52.570;13.052;2024-02-26T05:26:20;3.30;99.90
23207;DHT22;11773;52.570;13.052;2024-02-26T05:28:50;3.20;99.90
23207;DHT22;11773;52.570;13.052;2024-02-26T05:31:20;3.20;99.90
23207;DHT22;11773;52.570;13.052;2024-02-26T05:33:49;3.20;99.90
23207;DHT22;11773;52.570;13.052;2024-02-26T05:36:21;3.20;99.90
23207;DHT22;11773;52.570;13.052;2024-02-26T05:38:51;3.10;99.90
23207;DHT22;11773;52.570;13.052;2024-02-26T05:41:20;3.10;99.90
23207;DHT22;11773;52.570;13.052;2024-02-26T05:43:54;3.10;99.90
23207;DHT22;11773;52.570;13.052;2024-02-26T05:46:24;3.40;99.90
23207;DHT22;11773;52.570;13.052;2024-02-26T05:48:55;3.20;99.90
23207;DHT22;11773;52.570;13.052;2024-02-26T05:51:25;3.10;99.90
23207;DHT22;11773;52.570;13.052;2024-02-26T05:53:54;3.00;99.90
23207;DHT22;11773;52.570;13.052;2024-02-26T05:56:24;3.00;99.90
23207;DHT22;11773;52.570;13.052;2024-02-26T05:58:53;3.00;99.90
23207;DHT22;11773;52.570;13.052;2024-02-26T06:01:23;3.00;99.90
23207;DHT22;11773;52.570;13.052;2024-02-26T06:03:53;3.00;99.90
23207;DHT22;11773;52.570;13.052;2024-02-26T06:06:23;3.00;99.90
23207;DHT22;11773;52.570;13.052;2024-02-26T06:08:52;3.00;99.90
23207;DHT22;11773;52.570;13.052;2024-02-26T06:11:22;3.00;99.90
23207;DHT22;11773;52.570;13.052;2024-02-26T06:13:52;3.00;99.90
23207;DHT22;11773;52.570;13.052;2024-02-26T06:16:22;3.00;99.90
23207;DHT22;11773;52.570;13.052;2024-02-26T06:18:51;3.10;99.90
23207;DHT22;11773;52.570;13.052;2024-02-26T06:21:21;3.10;99.90
23207;DHT22;11773;52.570;13.052;2024-02-26T06:23:51;3.10;99.90
23207;DHT22;11773;52.570;13.052;2024-02-26T06:26:20;3.10;99.90
23207;DHT22;11773;52.570;13.052;2024-02-26T06:28:50;3.10;99.90
23207;DHT22;11773;52.570;13.052;2024-02-26T06:31:21;3.10;99.90
23207;DHT22;11773;52.570;13.052;2024-02-26T06:33:50;3.20;99.90
23207;DHT22;11773;52.570;13.052;2024-02-26T06:36:21;3.30;99.90
23207;DHT22;11773;52.570;13.052;2024-02-26T06:38:51;3.30;99.90
23207;DHT22;11773;52.570;13.052;2024-02-26T06:41:22;3.50;99.90
23207;DHT22;11773;52.570;13.052;2024-02-26T06:43:55;3.40;99.90
23207;DHT22;11773;52.570;13.052;2024-02-26T06:46:25;3.50;99.90
23207;DHT22;11773;52.570;13.052;2024-02-26T06:48:56;3.50;99.90
23207;DHT22;11773;52.570;13.052;2024-02-26T06:51:26;3.50;99.90
23207;DHT22;11773;52.570;13.052;2024-02-26T06:53:55;3.70;99.90
23207;DHT22;11773;52.570;13.052;2024-02-26T06:56:25;3.90;99.90
23207;DHT22;11773;52.570;13.052;2024-02-26T06:58:55;3.90;99.90
23207;DHT22;11773;52.570;13.052;2024-02-26T07:01:24;4.00;99.90
23207;DHT22;11773;52.570;13.052;2024-02-26T07:03:54;4.10;99.90
23207;DHT22;11773;52.570;13.052;2024-02-26T07:06:24;4.00;99.90
23207;DHT22;11773;52.570;13.052;2024-02-26T07:08:53;4.00;99.90
23207;DHT22;11773;52.570;13.052;2024-02-26T07:11:23;4.20;99.90
23207;DHT22;11773;52.570;13.052;2024-02-26T07:13:53;4.10;99.90
23207;DHT22;11773;52.570;13.052;2024-02-26T07:16:23;4.20;99.90
23207;DHT22;11773;52.570;13.052;2024-02-26T07:18:52;4.10;99.90
23207;DHT22;11773;52.570;13.052;2024-02-26T07:21:22;4.10;99.90
23207;DHT22;11773;52.570;13.052;2024-02-26T07:23:52;4.20;99.90
23207;DHT22;11773;52.570;13.052;2024-02-26T07:26:22;4.20;99.90
23207;DHT22;11773;52.570;13.052;2024-02-26T07:28:53;4.30;99.90
23207;DHT22;11773;52.570;13.052;2024-02-26T07:31:23;4.30;99.90
23207;DHT22;11773;52.570;13.052;2024-02-26T07:33:52;4.40;99.90
23207;DHT22;11773;52.570;13.052;2024-02-26T07:36:22;4.40;99.90
23207;DHT22;11773;52.570;13.052;2024-02-26T07:38:52;4.40;99.90
23207;DHT22;11773;52.570;13.052;2024-02-26T07:41:22;4.60;99.90
23207;DHT22;11773;52.570;13.052;2024-02-26T07:43:51;4.60;99.90
23207;DHT22;11773;52.570;13.052;2024-02-26T07:46:21;4.70;99.90
23207;DHT22;11773;52.570;13.052;2024-02-26T07:48:51;4.60;99.90
23207;DHT22;11773;52.570;13.052;2024-02-26T07:51:20;4.70;99.90
23207;DHT22;11773;52.570;13.052;2024-02-26T07:53:51;4.70;99.90
23207;DHT22;11773;52.570;13.052;2024-02-26T07:56:20;4.80;99.90
23207;DHT22;11773;52.570;13.052;2024-02-26T07:58:50;4.90;99.90
23207;DHT22;11773;52.570;13.052;2024-02-26T08:01:19;4.90;99.90
23207;DHT22;11773;52.570;13.052;2024-02-26T08:03:49;5.10;99.90
23207;DHT22;11773;52.570;13.052;2024-02-26T08:06:19;5.10;99.90
23207;DHT22;11773;52.570;13.052;2024-02-26T08:08:49;5.20;99.90
23207;DHT22;11773;52.570;13.052;2024-02-26T08:11:18;5.30;99.90
23207;DHT22;11773;52.570;13.052;2024-02-26T08:13:48;5.30;99.90
23207;DHT22;11773;52.570;13.052;2024-02-26T08:16:18;5.20;99.90
23207;DHT22;11773;52.570;13.052;2024-02-26T08:18:47;5.30;99.90
23207;DHT22;11773;52.570;13.052;2024-02-26T08:21:17;5.40;99.90
23207;DHT22;11773;52.570;13.052;2024-02-26T08:23:47;5.40;99.90
23207;DHT22;11773;52.570;13.052;2024-02-26T08:26:17;5.50;99.90
23207;DHT22;11773;52.570;13.052;2024-02-26T08:28:48;5.50;99.90
23207;DHT22;11773;52.570;13.052;2024-02-26T08:31:19;5.60;99.90
23207;DHT22;11773;52.570;13.052;2024-02-26T08:33:49;5.70;99.90
23207;DHT22;11773;52.570;13.052;2024-02-26T08:36:18;5.80;99.90
23207;DHT22;11773;52.570;13.052;2024-02-26T08:38:48;5.80;99.90
23207;DHT22;11773;52.570;13.052;2024-02-26T08:41:18;5.80;99.90
23207;DHT22;11773;52.570;13.052;2024-02-26T08:43:47;6.00;99.90
23207;DHT22;11773;52.570;13.052;2024-02-26T08:46:17;6.00;99.90
23207;DHT22;11773;52.570;13.052;2024-02-26T08:48:46;6.00;99.90
23207;DHT22;11773;52.570;13.052;2024-02-26T08:51:16;6.10;99.90
23207;DHT22;11773;52.570;13.052;2024-02-26T08:53:46;6.30;99.90
23207;DHT22;11773;52.570;13.052;2024-02-26T08:56:16;6.30;99.90
23207;DHT22;11773;52.570;13.052;2024-02-26T08:58:47;6.40;99.90
23207;DHT22;11773;52.570;13.052;2024-02-26T09:01:21;6.40;99.90
23207;DHT22;11773;52.570;13.052;2024-02-26T09:03:51;6.50;99.90
23207;DHT22;11773;52.570;13.052;2024-02-26T09:06:21;6.50;99.90
23207;DHT22;11773;52.570;13.052;2024-02-26T09:08:50;6.70;99.90
23207;DHT22;11773;52.570;13.052;2024-02-26T09:11:20;6.80;99.90
23207;DHT22;11773;52.570;13.052;2024-02-26T09:13:49;6.90;99.90
23207;DHT22;11773;52.570;13.052;2024-02-26T09:16:19;6.90;99.90
23207;DHT22;11773;52.570;13.052;2024-02-26T09:18:49;7.10;99.90
23207;DHT22;11773;52.570;13.052;2024-02-26T09:21:18;7.30;99.90
23207;DHT22;11773;52.570;13.052;2024-02-26T09:23:51;7.30;99.90
23207;DHT22;11773;52.570;13.052;2024-02-26T09:26:21;7.40;99.90
23207;DHT22;11773;52.570;13.052;2024-02-26T09:28:51;7.60;99.90
23207;DHT22;11773;52.570;13.052;2024-02-26T09:31:20;7.70;99.90
23207;DHT22;11773;52.570;13.052;2024-02-26T09:33:50;7.70;99.90
23207;DHT22;11773;52.570;13.052;2024-02-26T09:36:20;7.80;99.90
23207;DHT22;11773;52.570;13.052;2024-02-26T09:38:49;7.90;99.90
23207;DHT22;11773;52.570;13.052;2024-02-26T09:41:20;8.00;99.90
23207;DHT22;11773;52.570;13.052;2024-02-26T09:43:52;8.10;99.90
23207;DHT22;11773;52.570;13.052;2024-02-26T09:46:25;8.20;99.90
23207;DHT22;11773;52.570;13.052;2024-02-26T09:48:55;8.30;99.90
23207;DHT22;11773;52.570;13.052;2024-02-26T09:51:26;8.30;99.90
23207;DHT22;11773;52.570;13.052;2024-02-26T09:53:59;8.50;99.90
23207;DHT22;11773;52.570;13.052;2024-02-26T09:56:31;8.50;99.90
23207;DHT22;11773;52.570;13.052;2024-02-26T09:59:01;8.50;99.90
23207;DHT22;11773;52.570;13.052;2024-02-26T10:01:34;8.60;99.90
23207;DHT22;11773;52.570;13.052;2024-02-26T10:04:06;8.70;99.90
23207;DHT22;11773;52.570;13.052;2024-02-26T10:06:39;8.70;99.90
23207;DHT22;11773;52.570;13.052;2024-02-26T10:09:12;8.80;99.90
23207;DHT22;11773;52.570;13.052;2024-02-26T10:11:44;8.80;99.90
23207;DHT22;11773;52.570;13.052;2024-02-26T10:14:15;8.90;99.90
23207;DHT22;11773;52.570;13.052;2024-02-26T10:16:45;9.00;99.90
23207;DHT22;11773;52.570;13.052;2024-02-26T10:19:28;9.10;99.90
23207;DHT22;11773;52.570;13.052;2024-02-26T10:22:01;9.30;99.90
23207;DHT22;11773;52.570;13.052;2024-02-26T10:24:32;9.40;99.90
23207;DHT22;11773;52.570;13.052;2024-02-26T10:27:03;9.50;99.90
23207;DHT22;11773;52.570;13.052;2024-02-26T10:29:34;9.60;99.90
23207;DHT22;11773;52.570;13.052;2024-02-26T10:32:04;9.60;99.90
23207;DHT22;11773;52.570;13.052;2024-02-26T10:34:35;9.70;99.90
23207;DHT22;11773;52.570;13.052;2024-02-26T10:37:09;9.80;99.90
23207;DHT22;11773;52.570;13.052;2024-02-26T10:39:39;9.90;99.90
23207;DHT22;11773;52.570;13.052;2024-02-26T10:42:13;9.90;99.90
23207;DHT22;11773;52.570;13.052;2024-02-26T10:44:43;10.00;99.90
23207;DHT22;11773;52.570;13.052;2024-02-26T10:47:13;10.10;99.90
23207;DHT22;11773;52.570;13.052;2024-02-26T10:49:47;10.20;99.90
23207;DHT22;11773;52.570;13.052;2024-02-26T10:52:19;10.30;99.90
23207;DHT22;11773;52.570;13.052;2024-02-26T10:54:57;10.20;99.90
23207;DHT22;11773;52.570;13.052;2024-02-26T10:57:39;10.30;99.90
23207;DHT22;11773;52.570;13.052;2024-02-26T11:00:13;10.30;99.90
23207;DHT22;11773;52.570;13.052;2024-02-26T11:02:45;10.30;99.90
23207;DHT22;11773;52.570;13.052;2024-02-26T11:05:17;10.50;99.90
23207;DHT22;11773;52.570;13.052;2024-02-26T11:07:48;10.50;99.90
23207;DHT22;11773;52.570;13.052;2024-02-26T11:10:19;10.50;99.90
23207;DHT22;11773;52.570;13.052;2024-02-26T11:12:50;10.60;99.90
23207;DHT22;11773;52.570;13.052;2024-02-26T11:15:22;10.80;99.90
23207;DHT22;11773;52.570;13.052;2024-02-26T11:17:53;10.80;99.90
23207;DHT22;11773;52.570;13.052;2024-02-26T11:20:27;10.80;99.90
23207;DHT22;11773;52.570;13.052;2024-02-26T11:22:57;10.80;99.90
23207;DHT22;11773;52.570;13.052;2024-02-26T11:25:27;10.80;99.90
23207;DHT22;11773;52.570;13.052;2024-02-26T11:28:03;10.80;99.90
23207;DHT22;11773;52.570;13.052;2024-02-26T11:30:35;10.80;99.90
23207;DHT22;11773;52.570;13.052;2024-02-26T11:33:09;10.80;99.90
23207;DHT22;11773;52.570;13.052;2024-02-26T11:35:40;10.80;99.90
23207;DHT22;11773;52.570;13.052;2024-02-26T11:38:21;10.80;99.90
23207;DHT22;11773;52.570;13.052;2024-02-26T11:40:53;10.90;99.90
23207;DHT22;11773;52.570;13.052;2024-02-26T11:46:33;11.10;99.90
23207;DHT22;11773;52.570;13.052;2024-02-26T11:51:59;11.20;99.90
23207;DHT22;11773;52.570;13.052;2024-02-26T11:54:51;11.20;99.90
23207;DHT22;11773;52.570;13.052;2024-02-26T11:57:29;11.10;99.90
23207;DHT22;11773;52.570;13.052;2024-02-26T12:00:15;11.20;99.90
23207;DHT22;11773;52.570;13.052;2024-02-26T12:02:52;11.10;99.90
23207;DHT22;11773;52.570;13.052;2024-02-26T12:05:33;11.10;99.90
23207;DHT22;11773;52.570;13.052;2024-02-26T12:08:06;11.10;99.90
23207;DHT22;11773;52.570;13.052;2024-02-26T12:10:38;11.30;99.90
23207;DHT22;11773;52.570;13.052;2024-02-26T12:13:13;11.30;99.90
23207;DHT22;11773;52.570;13.052;2024-02-26T12:15:56;11.30;99.90
23207;DHT22;11773;52.570;13.052;2024-02-26T12:18:28;11.30;99.90
23207;DHT22;11773;52.570;13.052;2024-02-26T12:21:00;11.30;99.90
23207;DHT22;11773;52.570;13.052;2024-02-26T12:23:31;11.50;99.90
23207;DHT22;11773;52.570;13.052;2024-02-26T12:26:00;11.60;99.90
23207;DHT22;11773;52.570;13.052;2024-02-26T12:28:32;11.70;99.90
23207;DHT22;11773;52.570;13.052;2024-02-26T12:31:01;11.80;99.90
23207;DHT22;11773;52.570;13.052;2024-02-26T12:33:32;11.90;99.90
23207;DHT22;11773;52.570;13.052;2024-02-26T12:36:03;11.90;99.90
23207;DHT22;11773;52.570;13.052;2024-02-26T12:38:33;11.90;99.90
23207;DHT22;11773;52.570;13.052;2024-02-26T12:41:04;11.90;99.90
23207;DHT22;11773;52.570;13.052;2024-02-26T12:43:35;12.00;99.90
23207;DHT22;11773;52.570;13.052;2024-02-26T12:46:04;12.00;99.90
23207;DHT22;11773;52.570;13.052;2024-02-26T12:48:34;12.00;99.90
23207;DHT22;11773;52.570;13.052;2024-02-26T12:51:05;11.90;99.90
23207;DHT22;11773;52.570;13.052;2024-02-26T12:53:38;12.00;99.90
23207;DHT22;11773;52.570;13.052;2024-02-26T12:56:09;12.10;99.90
23207;DHT22;11773;52.570;13.052;2024-02-26T14:12:59;12.30;99.90
23207;DHT22;11773;52.570;13.052;2024-02-26T14:15:29;12.40;99.90
23207;DHT22;11773;52.570;13.052;2024-02-26T14:18:00;12.30;99.90
23207;DHT22;11773;52.570;13.052;2024-02-26T14:20:32;12.30;99.90
23207;DHT22;11773;52.570;13.052;2024-02-26T14:23:01;12.30;99.90
23207;DHT22;11773;52.570;13.052;2024-02-26T14:25:31;12.20;99.90
23207;DHT22;11773;52.570;13.052;2024-02-26T14:28:00;12.20;99.90
23207;DHT22;11773;52.570;13.052;2024-02-26T14:30:30;12.20;99.90
23207;DHT22;11773;52.570;13.052;2024-02-26T14:33:00;12.20;99.90
23207;DHT22;11773;52.570;13.052;2024-02-26T14:35:32;12.20;99.90
23207;DHT22;11773;52.570;13.052;2024-02-26T14:38:01;12.10;99.90
23207;DHT22;11773;52.570;13.052;2024-02-26T14:40:31;12.10;99.90
23207;DHT22;11773;52.570;13.052;2024-02-26T14:43:00;12.10;99.90
23207;DHT22;11773;52.570;13.052;2024-02-26T14:45:32;12.20;99.90
23207;DHT22;11773;52.570;13.052;2024-02-26T14:48:01;12.20;99.90
23207;DHT22;11773;52.570;13.052;2024-02-26T14:50:31;12.20;99.90
23207;DHT22;11773;52.570;13.052;2024-02-26T14:53:01;12.20;99.90
23207;DHT22;11773;52.570;13.052;2024-02-26T14:55:31;12.10;99.90
23207;DHT22;11773;52.570;13.052;2024-02-26T14:58:02;12.10;99.90
23207;DHT22;11773;52.570;13.052;2024-02-26T15:00:32;12.00;99.90
23207;DHT22;11773;52.570;13.052;2024-02-26T15:03:03;12.10;99.90
23207;DHT22;11773;52.570;13.052;2024-02-26T15:05:34;12.10;99.90
23207;DHT22;11773;52.570;13.052;2024-02-26T15:08:04;12.10;99.90
23207;DHT22;11773;52.570;13.052;2024-02-26T15:10:35;12.10;99.90
23207;DHT22;11773;52.570;13.052;2024-02-26T15:13:05;12.20;99.90
23207;DHT22;11773;52.570;13.052;2024-02-26T15:15:36;12.20;99.90
23207;DHT22;11773;52.570;13.052;2024-02-26T15:18:07;12.10;99.90
23207;DHT22;11773;52.570;13.052;2024-02-26T15:20:39;12.20;99.90
23207;DHT22;11773;52.570;13.052;2024-02-26T15:23:09;12.20;99.90
23207;DHT22;11773;52.570;13.052;2024-02-26T15:25:39;12.10;99.90
23207;DHT22;11773;52.570;13.052;2024-02-26T15:28:09;12.20;99.90
23207;DHT22;11773;52.570;13.052;2024-02-26T15:30:40;12.20;99.90
23207;DHT22;11773;52.570;13.052;2024-02-26T15:33:10;12.10;99.90
23207;DHT22;11773;52.570;13.052;2024-02-26T15:35:41;12.10;99.90
23207;DHT22;11773;52.570;13.052;2024-02-26T15:38:12;11.90;99.90
23207;DHT22;11773;52.570;13.052;2024-02-26T15:40:41;12.00;99.90
23207;DHT22;11773;52.570;13.052;2024-02-26T15:43:12;11.90;99.90
23207;DHT22;11773;52.570;13.052;2024-02-26T15:45:43;11.90;99.90
23207;DHT22;11773;52.570;13.052;2024-02-26T15:48:13;11.90;99.90
23207;DHT22;11773;52.570;13.052;2024-02-26T15:50:43;11.90;99.90
23207;DHT22;11773;52.570;13.052;2024-02-26T15:53:13;11.90;99.90
23207;DHT22;11773;52.570;13.052;2024-02-26T15:55:42;11.70;99.90
23207;DHT22;11773;52.570;13.052;2024-02-26T15:58:12;11.80;99.90
23207;DHT22;11773;52.570;13.052;2024-02-26T16:00:42;11.70;99.90
23207;DHT22;11773;52.570;13.052;2024-02-26T16:03:12;11.70;99.90
23207;DHT22;11773;52.570;13.052;2024-02-26T16:05:42;11.70;99.90
23207;DHT22;11773;52.570;13.052;2024-02-26T16:08:18;11.60;99.90
23207;DHT22;11773;52.570;13.052;2024-02-26T16:10:49;11.60;99.90
23207;DHT22;11773;52.570;13.052;2024-02-26T16:13:19;11.50;99.90
23207;DHT22;11773;52.570;13.052;2024-02-26T16:15:53;11.40;99.90
23207;DHT22;11773;52.570;13.052;2024-02-26T16:18:26;11.40;99.90
23207;DHT22;11773;52.570;13.052;2024-02-26T16:20:56;11.40;99.90
23207;DHT22;11773;52.570;13.052;2024-02-26T16:23:25;11.40;99.90
23207;DHT22;11773;52.570;13.052;2024-02-26T16:25:55;11.30;99.90
23207;DHT22;11773;52.570;13.052;2024-02-26T16:28:24;11.30;99.90
23207;DHT22;11773;52.570;13.052;2024-02-26T16:30:54;11.20;99.90
23207;DHT22;11773;52.570;13.052;2024-02-26T16:33:24;11.10;99.90
23207;DHT22;11773;52.570;13.052;2024-02-26T16:35:54;11.10;99.90
23207;DHT22;11773;52.570;13.052;2024-02-26T16:38:23;11.20;99.90
23207;DHT22;11773;52.570;13.052;2024-02-26T16:40:55;11.00;99.90
23207;DHT22;11773;52.570;13.052;2024-02-26T16:43:24;11.00;99.90
23207;DHT22;11773;52.570;13.052;2024-02-26T16:45:54;11.10;99.90
23207;DHT22;11773;52.570;13.052;2024-02-26T16:48:23;10.90;99.90
23207;DHT22;11773;52.570;13.052;2024-02-26T16:50:53;10.90;99.90
23207;DHT22;11773;52.570;13.052;2024-02-26T16:53:23;10.90;99.90
23207;DHT22;11773;52.570;13.052;2024-02-26T16:55:52;10.90;99.90
23207;DHT22;11773;52.570;13.052;2024-02-26T16:58:22;10.80;99.90
23207;DHT22;11773;52.570;13.052;2024-02-26T17:00:52;10.70;99.90
23207;DHT22;11773;52.570;13.052;2024-02-26T17:03:22;10.70;99.90
23207;DHT22;11773;52.570;13.052;2024-02-26T17:05:52;10.80;99.90